sensor_id;sensor_type;location;lat;lon;timestamp;P1;durP1;ratioP1;P2;durP2;ratioP2
67164;SDS011;54093;50.014;19.984;2023-02-24T00:00:52;13.80;;;9.93;;
67164;SDS011;54093;50.014;19.984;2023-02-24T00:10:15;18.80;;;10.43;;
67164;SDS011;54093;50.014;19.984;2023-02-24T00:19:40;20.73;;;10.27;;
67164;SDS011;54093;50.014;19.984;2023-02-24T00:29:05;16.33;;;9.20;;
67164;SDS011;54093;50.014;19.984;2023-02-24T00:47:51;16.58;;;9.27;;
67164;SDS011;54093;50.014;19.984;2023-02-24T00:57:12;13.70;;;9.68;;
67164;SDS011;54093;50.014;19.984;2023-02-24T01:06:34;16.90;;;9.55;;
67164;SDS011;54093;50.014;19.984;2023-02-24T01:15:58;16.17;;;10.07;;
67164;SDS011;54093;50.014;19.984;2023-02-24T01:25:21;17.58;;;10.55;;
67164;SDS011;54093;50.014;19.984;2023-02-24T01:34:42;28.35;;;9.23;;
67164;SDS011;54093;50.014;19.984;2023-02-24T01:53:49;13.90;;;9.70;;
67164;SDS011;54093;50.014;19.984;2023-02-24T02:03:12;12.57;;;8.88;;
67164;SDS011;54093;50.014;19.984;2023-02-24T02:12:47;15.75;;;9.90;;
67164;SDS011;54093;50.014;19.984;2023-02-24T02:50:56;9.05;;;6.93;;
67164;SDS011;54093;50.014;19.984;2023-02-24T03:00:27;9.60;;;7.78;;
67164;SDS011;54093;50.014;19.984;2023-02-24T03:09:54;7.60;;;6.88;;
67164;SDS011;54093;50.014;19.984;2023-02-24T03:19:20;9.73;;;5.95;;
67164;SDS011;54093;50.014;19.984;2023-02-24T03:28:56;6.50;;;5.60;;
67164;SDS011;54093;50.014;19.984;2023-02-24T03:38:22;12.63;;;6.72;;
67164;SDS011;54093;50.014;19.984;2023-02-24T03:47:43;6.22;;;5.72;;
67164;SDS011;54093;50.014;19.984;2023-02-24T03:57:15;9.45;;;7.53;;
67164;SDS011;54093;50.014;19.984;2023-02-24T04:16:15;13.23;;;8.98;;
67164;SDS011;54093;50.014;19.984;2023-02-24T04:25:48;11.18;;;8.60;;
67164;SDS011;54093;50.014;19.984;2023-02-24T04:35:13;10.57;;;8.30;;
67164;SDS011;54093;50.014;19.984;2023-02-24T04:44:36;10.82;;;8.73;;
67164;SDS011;54093;50.014;19.984;2023-02-24T04:53:57;18.20;;;10.25;;
67164;SDS011;54093;50.014;19.984;2023-02-24T05:03:19;13.38;;;9.90;;
67164;SDS011;54093;50.014;19.984;2023-02-24T05:12:41;13.48;;;10.57;;
67164;SDS011;54093;50.014;19.984;2023-02-24T05:22:02;16.75;;;10.82;;
67164;SDS011;54093;50.014;19.984;2023-02-24T05:31:25;14.68;;;8.48;;
67164;SDS011;54093;50.014;19.984;2023-02-24T05:40:48;12.10;;;8.52;;
67164;SDS011;54093;50.014;19.984;2023-02-24T05:50:09;10.10;;;8.88;;
67164;SDS011;54093;50.014;19.984;2023-02-24T05:59:31;9.95;;;7.45;;
67164;SDS011;54093;50.014;19.984;2023-02-24T06:08:53;13.02;;;8.35;;
67164;SDS011;54093;50.014;19.984;2023-02-24T06:18:15;12.13;;;7.68;;
67164;SDS011;54093;50.014;19.984;2023-02-24T06:27:37;10.25;;;7.88;;
67164;SDS011;54093;50.014;19.984;2023-02-24T06:36:58;12.82;;;6.97;;
67164;SDS011;54093;50.014;19.984;2023-02-24T06:46:19;10.80;;;7.57;;
67164;SDS011;54093;50.014;19.984;2023-02-24T06:55:40;14.77;;;8.38;;
67164;SDS011;54093;50.014;19.984;2023-02-24T07:05:02;6.05;;;5.45;;
67164;SDS011;54093;50.014;19.984;2023-02-24T07:14:26;5.95;;;5.07;;
67164;SDS011;54093;50.014;19.984;2023-02-24T07:23:50;7.60;;;4.97;;
67164;SDS011;54093;50.014;19.984;2023-02-24T07:33:16;6.47;;;5.15;;
67164;SDS011;54093;50.014;19.984;2023-02-24T07:42:39;7.38;;;5.30;;
67164;SDS011;54093;50.014;19.984;2023-02-24T07:52:00;9.50;;;5.35;;
67164;SDS011;54093;50.014;19.984;2023-02-24T08:01:21;12.77;;;6.75;;
67164;SDS011;54093;50.014;19.984;2023-02-24T08:10:42;5.97;;;5.45;;
67164;SDS011;54093;50.014;19.984;2023-02-24T08:20:03;7.90;;;5.75;;
67164;SDS011;54093;50.014;19.984;2023-02-24T08:29:49;6.65;;;5.50;;
67164;SDS011;54093;50.014;19.984;2023-02-24T08:39:21;8.90;;;5.70;;
67164;SDS011;54093;50.014;19.984;2023-02-24T08:48:50;4.40;;;4.10;;
67164;SDS011;54093;50.014;19.984;2023-02-24T08:58:20;3.13;;;2.92;;
67164;SDS011;54093;50.014;19.984;2023-02-24T09:07:46;4.53;;;4.18;;
67164;SDS011;54093;50.014;19.984;2023-02-24T09:17:14;3.40;;;3.20;;
67164;SDS011;54093;50.014;19.984;2023-02-24T09:26:41;4.93;;;4.45;;
67164;SDS011;54093;50.014;19.984;2023-02-24T09:36:13;4.53;;;4.13;;
67164;SDS011;54093;50.014;19.984;2023-02-24T09:56:09;6.10;;;4.85;;
67164;SDS011;54093;50.014;19.984;2023-02-24T10:05:31;4.07;;;3.78;;
67164;SDS011;54093;50.014;19.984;2023-02-24T10:15:11;5.63;;;5.10;;
67164;SDS011;54093;50.014;19.984;2023-02-24T10:34:38;6.55;;;4.90;;
67164;SDS011;54093;50.014;19.984;2023-02-24T10:43:59;7.22;;;6.70;;
67164;SDS011;54093;50.014;19.984;2023-02-24T10:53:24;8.48;;;7.63;;
67164;SDS011;54093;50.014;19.984;2023-02-24T11:03:13;6.60;;;5.22;;
67164;SDS011;54093;50.014;19.984;2023-02-24T11:12:46;7.80;;;7.20;;
67164;SDS011;54093;50.014;19.984;2023-02-24T11:22:30;6.93;;;6.03;;
67164;SDS011;54093;50.014;19.984;2023-02-24T11:32:05;8.18;;;7.55;;
67164;SDS011;54093;50.014;19.984;2023-02-24T11:41:30;6.30;;;5.70;;
67164;SDS011;54093;50.014;19.984;2023-02-24T11:50:58;7.10;;;6.50;;
67164;SDS011;54093;50.014;19.984;2023-02-24T12:00:22;7.03;;;5.60;;
67164;SDS011;54093;50.014;19.984;2023-02-24T12:10:06;7.13;;;6.47;;
67164;SDS011;54093;50.014;19.984;2023-02-24T12:19:52;7.63;;;6.85;;
67164;SDS011;54093;50.014;19.984;2023-02-24T12:39:11;6.22;;;5.63;;
67164;SDS011;54093;50.014;19.984;2023-02-24T13:17:30;6.43;;;5.00;;
67164;SDS011;54093;50.014;19.984;2023-02-24T13:26:51;5.35;;;4.95;;
67164;SDS011;54093;50.014;19.984;2023-02-24T13:36:23;5.80;;;5.30;;
67164;SDS011;54093;50.014;19.984;2023-02-24T13:45:52;9.93;;;5.65;;
67164;SDS011;54093;50.014;19.984;2023-02-24T13:55:30;5.72;;;4.55;;
67164;SDS011;54093;50.014;19.984;2023-02-24T14:04:56;6.50;;;5.07;;
67164;SDS011;54093;50.014;19.984;2023-02-24T14:14:18;6.45;;;5.85;;
67164;SDS011;54093;50.014;19.984;2023-02-24T14:23:40;6.78;;;4.50;;
67164;SDS011;54093;50.014;19.984;2023-02-24T14:33:01;3.72;;;3.53;;
67164;SDS011;54093;50.014;19.984;2023-02-24T14:42:24;5.53;;;5.10;;
67164;SDS011;54093;50.014;19.984;2023-02-24T14:51:46;5.85;;;4.20;;
67164;SDS011;54093;50.014;19.984;2023-02-24T15:01:26;6.15;;;4.78;;
67164;SDS011;54093;50.014;19.984;2023-02-24T15:10:55;4.28;;;3.88;;
67164;SDS011;54093;50.014;19.984;2023-02-24T15:20:24;4.18;;;3.78;;
67164;SDS011;54093;50.014;19.984;2023-02-24T15:29:56;7.70;;;4.43;;
67164;SDS011;54093;50.014;19.984;2023-02-24T15:39:21;5.63;;;3.72;;
67164;SDS011;54093;50.014;19.984;2023-02-24T15:48:44;6.88;;;4.43;;
67164;SDS011;54093;50.014;19.984;2023-02-24T15:58:10;5.75;;;5.00;;
67164;SDS011;54093;50.014;19.984;2023-02-24T16:07:35;7.50;;;6.65;;
67164;SDS011;54093;50.014;19.984;2023-02-24T16:16:57;8.15;;;6.88;;
67164;SDS011;54093;50.014;19.984;2023-02-24T16:26:19;7.32;;;6.65;;
67164;SDS011;54093;50.014;19.984;2023-02-24T16:35:42;8.95;;;7.28;;
67164;SDS011;54093;50.014;19.984;2023-02-24T16:45:04;11.60;;;6.82;;
67164;SDS011;54093;50.014;19.984;2023-02-24T16:54:26;6.82;;;5.93;;
67164;SDS011;54093;50.014;19.984;2023-02-24T17:03:49;6.60;;;5.72;;
67164;SDS011;54093;50.014;19.984;2023-02-24T17:13:12;6.38;;;5.00;;
67164;SDS011;54093;50.014;19.984;2023-02-24T17:22:34;5.35;;;4.85;;
67164;SDS011;54093;50.014;19.984;2023-02-24T17:31:55;7.20;;;6.53;;
67164;SDS011;54093;50.014;19.984;2023-02-24T17:41:16;5.38;;;4.85;;
67164;SDS011;54093;50.014;19.984;2023-02-24T17:50:39;6.88;;;5.82;;
67164;SDS011;54093;50.014;19.984;2023-02-24T18:00:01;7.68;;;6.32;;
67164;SDS011;54093;50.014;19.984;2023-02-24T18:09:23;6.25;;;4.72;;
67164;SDS011;54093;50.014;19.984;2023-02-24T18:18:44;7.15;;;5.53;;
67164;SDS011;54093;50.014;19.984;2023-02-24T18:28:05;8.77;;;7.15;;
67164;SDS011;54093;50.014;19.984;2023-02-24T18:37:27;11.43;;;7.32;;
67164;SDS011;54093;50.014;19.984;2023-02-24T18:46:47;11.70;;;6.75;;
67164;SDS011;54093;50.014;19.984;2023-02-24T18:56:09;10.20;;;6.85;;
67164;SDS011;54093;50.014;19.984;2023-02-24T19:05:36;7.43;;;5.53;;
67164;SDS011;54093;50.014;19.984;2023-02-24T19:14:57;8.65;;;6.63;;
67164;SDS011;54093;50.014;19.984;2023-02-24T19:24:18;9.70;;;7.50;;
67164;SDS011;54093;50.014;19.984;2023-02-24T19:33:39;14.93;;;6.47;;
67164;SDS011;54093;50.014;19.984;2023-02-24T19:43:00;8.10;;;5.53;;
67164;SDS011;54093;50.014;19.984;2023-02-24T19:52:21;10.20;;;5.82;;
67164;SDS011;54093;50.014;19.984;2023-02-24T20:01:42;15.45;;;5.53;;
67164;SDS011;54093;50.014;19.984;2023-02-24T20:11:04;5.50;;;4.07;;
67164;SDS011;54093;50.014;19.984;2023-02-24T20:20:25;8.13;;;4.60;;
67164;SDS011;54093;50.014;19.984;2023-02-24T20:29:46;5.00;;;3.38;;
67164;SDS011;54093;50.014;19.984;2023-02-24T20:39:07;7.57;;;4.10;;
67164;SDS011;54093;50.014;19.984;2023-02-24T20:48:28;3.47;;;3.17;;
67164;SDS011;54093;50.014;19.984;2023-02-24T20:57:49;6.63;;;5.47;;
67164;SDS011;54093;50.014;19.984;2023-02-24T21:07:10;13.45;;;7.00;;
67164;SDS011;54093;50.014;19.984;2023-02-24T21:16:32;7.45;;;5.22;;
67164;SDS011;54093;50.014;19.984;2023-02-24T21:25:55;10.40;;;5.22;;
67164;SDS011;54093;50.014;19.984;2023-02-24T21:35:16;6.28;;;4.53;;
67164;SDS011;54093;50.014;19.984;2023-02-24T21:44:37;5.25;;;4.72;;
67164;SDS011;54093;50.014;19.984;2023-02-24T21:53:58;4.47;;;4.07;;
67164;SDS011;54093;50.014;19.984;2023-02-24T22:03:20;3.85;;;2.85;;
67164;SDS011;54093;50.014;19.984;2023-02-24T22:12:42;1.80;;;1.70;;
67164;SDS011;54093;50.014;19.984;2023-02-24T22:22:03;2.88;;;1.75;;
67164;SDS011;54093;50.014;19.984;2023-02-24T22:31:26;5.25;;;2.60;;
67164;SDS011;54093;50.014;19.984;2023-02-24T22:40:56;1.93;;;1.80;;
67164;SDS011;54093;50.014;19.984;2023-02-24T22:50:18;2.72;;;2.40;;
67164;SDS011;54093;50.014;19.984;2023-02-24T22:59:39;4.75;;;2.95;;
67164;SDS011;54093;50.014;19.984;2023-02-24T23:09:00;7.13;;;3.42;;
67164;SDS011;54093;50.014;19.984;2023-02-24T23:18:22;2.85;;;2.65;;
67164;SDS011;54093;50.014;19.984;2023-02-24T23:27:43;5.95;;;3.00;;
67164;SDS011;54093;50.014;19.984;2023-02-24T23:37:04;4.22;;;2.42;;
67164;SDS011;54093;50.014;19.984;2023-02-24T23:46:25;5.13;;;3.15;;
67164;SDS011;54093;50.014;19.984;2023-02-24T23:55:46;3.83;;;3.03;;
